createdAt,value
2023-01-25T00:01:12.064Z,103914.22
2023-01-25T00:03:44.087Z,103907.38
2023-01-25T00:07:06.045Z,103909.06
2023-01-25T00:09:38.064Z,103905.69
2023-01-25T00:12:34.628Z,103905.00
2023-01-25T00:15:07.838Z,103899.88
2023-01-25T00:17:40.086Z,103899.09
2023-01-25T00:20:12.219Z,103894.13
2023-01-25T00:22:44.172Z,103890.38
2023-01-25T00:25:16.206Z,103895.06
2023-01-25T00:27:51.259Z,103895.78
2023-01-25T00:30:23.259Z,103889.56
2023-01-25T00:33:07.770Z,103891.19
2023-01-25T00:35:39.881Z,103886.28
2023-01-25T00:38:34.402Z,103886.69
2023-01-25T00:41:08.188Z,103886.03
2023-01-25T00:43:40.210Z,103887.16
2023-01-25T00:46:17.077Z,103883.03
2023-01-25T00:48:49.426Z,103880.56
2023-01-25T00:51:25.721Z,103877.63
2023-01-25T00:54:09.233Z,103874.16
2023-01-25T00:56:41.276Z,103873.13
2023-01-25T00:59:17.034Z,103874.94
2023-01-25T01:01:49.715Z,103870.38
2023-01-25T01:05:06.174Z,103870.66
2023-01-25T01:07:39.694Z,103869.00
2023-01-25T01:13:28.835Z,103857.41
2023-01-25T01:16:04.179Z,103862.03
2023-01-25T01:18:41.414Z,103863.06
2023-01-25T01:21:14.113Z,103862.41
2023-01-25T01:23:46.239Z,103861.13
2023-01-25T01:26:21.402Z,103850.69
2023-01-25T01:29:07.496Z,103851.59
2023-01-25T01:31:39.624Z,103844.63
2023-01-25T01:34:14.906Z,103857.78
2023-01-25T01:36:46.951Z,103855.06
2023-01-25T01:39:19.619Z,103854.06
2023-01-25T01:41:51.696Z,103856.91
2023-01-25T01:44:51.547Z,103846.88
2023-01-25T01:47:49.142Z,103846.47
2023-01-25T01:50:24.842Z,103850.06
2023-01-25T01:52:57.003Z,103841.25
2023-01-25T01:55:29.299Z,103840.03
2023-01-25T01:58:03.664Z,103836.44
2023-01-25T02:00:40.423Z,103831.63
2023-01-25T02:03:18.313Z,103825.41
2023-01-25T02:05:56.559Z,103820.31
2023-01-25T02:10:02.130Z,103815.63
2023-01-25T02:12:35.560Z,103804.72
2023-01-25T02:15:09.091Z,103790.88
2023-01-25T02:17:42.782Z,103794.59
2023-01-25T02:20:37.792Z,103790.81
2023-01-25T02:23:33.946Z,103792.72
2023-01-25T02:26:07.196Z,103795.53
2023-01-25T02:28:53.361Z,103789.78
2023-01-25T02:31:25.775Z,103788.22
2023-01-25T02:33:57.845Z,103787.03
2023-01-25T02:36:35.257Z,103776.53
2023-01-25T02:39:20.286Z,103783.88
2023-01-25T02:41:52.943Z,103780.09
2023-01-25T02:44:34.438Z,103786.69
2023-01-25T02:47:06.695Z,103779.44
2023-01-25T02:50:15.048Z,103788.19
2023-01-25T02:52:47.773Z,103780.94
2023-01-25T02:55:19.808Z,103780.75
2023-01-25T02:57:51.789Z,103781.69
2023-01-25T03:00:23.784Z,103779.13
2023-01-25T03:02:55.880Z,103779.59
2023-01-25T03:05:28.023Z,103776.06
2023-01-25T03:08:00.133Z,103774.75
2023-01-25T03:10:32.117Z,103761.50
2023-01-25T03:13:04.132Z,103762.47
2023-01-25T03:15:36.183Z,103759.28
2023-01-25T03:18:08.252Z,103762.34
2023-01-25T03:20:40.319Z,103751.63
2023-01-25T03:23:37.932Z,103756.06
2023-01-25T03:26:16.079Z,103754.75
2023-01-25T03:28:48.173Z,103755.94
2023-01-25T03:31:20.459Z,103749.75
2023-01-25T03:33:52.635Z,103749.59
2023-01-25T03:36:37.824Z,103744.59
2023-01-25T03:39:10.028Z,103746.28
2023-01-25T03:44:43.234Z,103741.00
2023-01-25T03:50:14.509Z,103737.91
2023-01-25T03:52:50.130Z,103725.50
2023-01-25T03:55:22.095Z,103723.63
2023-01-25T03:57:54.258Z,103714.09
2023-01-25T04:00:26.342Z,103714.75
2023-01-25T04:02:58.383Z,103721.13
2023-01-25T04:05:30.378Z,103718.19
2023-01-25T04:08:02.360Z,103718.53
2023-01-25T04:10:35.664Z,103708.69
2023-01-25T04:13:07.846Z,103706.91
2023-01-25T04:15:40.339Z,103705.88
2023-01-25T04:18:12.378Z,103707.56
2023-01-25T04:20:45.575Z,103704.16
2023-01-25T04:23:17.551Z,103700.38
2023-01-25T04:25:58.625Z,103701.22
2023-01-25T04:28:31.385Z,103707.81
2023-01-25T04:33:53.183Z,103708.22
2023-01-25T04:36:25.138Z,103697.75
2023-01-25T04:38:57.226Z,103706.00
2023-01-25T04:41:31.442Z,103704.56
2023-01-25T04:44:03.558Z,103706.63
2023-01-25T04:46:35.557Z,103706.00
2023-01-25T04:49:07.598Z,103710.81
2023-01-25T04:51:39.662Z,103708.50
2023-01-25T04:54:11.707Z,103703.63
2023-01-25T04:56:43.698Z,103695.72
2023-01-25T04:59:15.829Z,103693.44
2023-01-25T05:02:05.714Z,103681.44
2023-01-25T05:04:37.840Z,103682.59
2023-01-25T05:07:09.939Z,103681.03
2023-01-25T05:09:42.012Z,103679.59
2023-01-25T05:12:14.130Z,103677.84
2023-01-25T05:17:47.425Z,103670.56
2023-01-25T05:20:19.513Z,103672.38
2023-01-25T05:22:51.522Z,103674.53
2023-01-25T05:25:41.862Z,103671.41
2023-01-25T05:28:14.317Z,103677.63
2023-01-25T05:30:46.551Z,103670.22
2023-01-25T05:33:18.525Z,103672.91
2023-01-25T05:36:35.713Z,103673.50
2023-01-25T05:39:08.784Z,103673.50
2023-01-25T05:41:40.854Z,103672.72
2023-01-25T05:44:12.822Z,103669.59
2023-01-25T05:46:45.221Z,103659.47
2023-01-25T05:49:18.375Z,103659.84
2023-01-25T05:51:50.399Z,103667.97
2023-01-25T05:54:23.792Z,103666.19
2023-01-25T05:56:55.941Z,103671.22
2023-01-25T05:59:27.969Z,103668.72
2023-01-25T06:01:59.994Z,103676.75
2023-01-25T06:04:32.116Z,103667.28
2023-01-25T06:07:06.974Z,103661.63
2023-01-25T06:09:38.943Z,103669.63
2023-01-25T06:12:10.982Z,103660.03
2023-01-25T06:14:43.193Z,103658.28
2023-01-25T06:17:15.293Z,103649.78
2023-01-25T06:19:49.074Z,103650.28
2023-01-25T06:22:21.102Z,103650.81
2023-01-25T06:24:53.018Z,103648.66
2023-01-25T06:30:34.652Z,103652.47
2023-01-25T06:33:08.390Z,103652.13
2023-01-25T06:35:43.539Z,103650.19
2023-01-25T06:38:15.515Z,103649.13
2023-01-25T06:40:47.467Z,103646.00
2023-01-25T06:43:19.508Z,103653.91
2023-01-25T06:45:51.553Z,103656.00
2023-01-25T06:48:23.575Z,103657.88
2023-01-25T06:51:01.852Z,103655.84
2023-01-25T06:53:39.612Z,103665.22
2023-01-25T06:56:26.098Z,103662.84
2023-01-25T07:02:00.929Z,103661.88
2023-01-25T07:05:07.201Z,103661.81
2023-01-25T07:07:39.412Z,103664.09
2023-01-25T07:10:48.208Z,103648.75
2023-01-25T07:13:22.251Z,103642.59
2023-01-25T07:16:04.509Z,103636.38
2023-01-25T07:18:39.579Z,103630.69
2023-01-25T07:21:21.522Z,103629.97
2023-01-25T07:23:53.545Z,103636.44
2023-01-25T07:26:26.333Z,103630.97
2023-01-25T07:28:59.719Z,103625.84
2023-01-25T07:34:20.307Z,103622.94
2023-01-25T07:36:52.297Z,103624.50
2023-01-25T07:39:26.688Z,103617.84
2023-01-25T07:41:58.751Z,103617.03
2023-01-25T07:44:30.719Z,103619.41
2023-01-25T07:47:02.733Z,103619.91
2023-01-25T07:49:34.928Z,103622.13
2023-01-25T07:52:07.063Z,103620.84
2023-01-25T07:54:39.025Z,103610.31
2023-01-25T07:57:11.250Z,103606.56
2023-01-25T07:59:43.375Z,103609.19
2023-01-25T08:02:15.407Z,103618.88
2023-01-25T08:04:50.360Z,103607.81
2023-01-25T08:07:23.865Z,103606.91
2023-01-25T08:09:56.208Z,103595.81
2023-01-25T08:12:28.911Z,103596.66
2023-01-25T08:15:01.701Z,103611.16
2023-01-25T08:17:33.702Z,103604.00
2023-01-25T08:20:08.067Z,103604.13
2023-01-25T08:22:40.263Z,103593.84
2023-01-25T08:25:36.249Z,103591.53
2023-01-25T08:28:08.417Z,103588.00
2023-01-25T08:30:52.049Z,103596.44
2023-01-25T08:33:28.285Z,103595.47
2023-01-25T08:36:00.500Z,103586.28
2023-01-25T08:38:33.003Z,103583.75
2023-01-25T08:41:19.202Z,103577.09
2023-01-25T08:43:54.103Z,103573.63
2023-01-25T08:46:31.931Z,103572.53
2023-01-25T08:49:05.114Z,103564.03
2023-01-25T08:51:37.100Z,103565.84
2023-01-25T08:54:12.928Z,103559.31
2023-01-25T08:56:50.793Z,103545.00
2023-01-25T08:59:23.128Z,103551.94
2023-01-25T09:01:55.110Z,103546.91
2023-01-25T09:04:28.564Z,103558.88
2023-01-25T09:07:00.812Z,103548.13
2023-01-25T09:09:32.914Z,103552.59
2023-01-25T09:12:05.605Z,103532.25
2023-01-25T09:14:40.351Z,103540.94
2023-01-25T09:17:12.360Z,103540.34
2023-01-25T09:19:44.338Z,103539.91
2023-01-25T09:22:16.267Z,103525.78
2023-01-25T09:24:52.472Z,103526.84
2023-01-25T09:27:24.656Z,103521.72
2023-01-25T09:31:24.250Z,103517.09
2023-01-25T09:33:35.584Z,103519.56
2023-01-25T09:36:08.599Z,103504.94
2023-01-25T09:38:42.389Z,103505.66
2023-01-25T09:41:29.384Z,103508.31
2023-01-25T09:44:24.328Z,103504.84
2023-01-25T09:47:36.870Z,103506.09
2023-01-25T09:50:37.795Z,103512.56
2023-01-25T09:53:38.448Z,103514.66
2023-01-25T09:56:16.625Z,103509.66
2023-01-25T09:58:55.003Z,103506.19
2023-01-25T10:01:43.475Z,103500.84
2023-01-25T10:04:25.228Z,103499.16
2023-01-25T10:07:11.464Z,103498.44
2023-01-25T10:09:52.981Z,103492.84
2023-01-25T10:12:26.864Z,103495.88
2023-01-25T10:14:58.899Z,103488.13
2023-01-25T10:17:41.755Z,103488.63
2023-01-25T10:21:05.645Z,103482.97
2023-01-25T10:23:52.432Z,103475.78
2023-01-25T10:26:29.952Z,103467.25
2023-01-25T10:29:36.644Z,103458.91
2023-01-25T10:32:32.004Z,103460.09
2023-01-25T10:35:42.010Z,103454.38
2023-01-25T10:38:59.316Z,103455.72
2023-01-25T10:41:42.259Z,103443.94
2023-01-25T10:44:26.593Z,103440.34
2023-01-25T10:47:03.700Z,103432.00
2023-01-25T10:49:48.047Z,103433.31
2023-01-25T10:52:23.250Z,103437.69
2023-01-25T10:55:23.719Z,103435.25
2023-01-25T10:58:00.507Z,103435.91
2023-01-25T11:00:42.092Z,103427.09
2023-01-25T11:03:22.088Z,103418.00
2023-01-25T11:05:58.158Z,103417.09
2023-01-25T11:08:39.215Z,103408.59
2023-01-25T11:12:16.257Z,103392.19
2023-01-25T11:14:50.116Z,103385.59
2023-01-25T11:17:32.206Z,103389.06
2023-01-25T11:20:22.463Z,103390.19
2023-01-25T11:22:56.599Z,103385.59
2023-01-25T11:25:34.211Z,103375.19
2023-01-25T11:28:28.800Z,103372.38
2023-01-25T11:31:02.548Z,103371.28
2023-01-25T11:33:36.080Z,103361.78
2023-01-25T11:40:24.387Z,103332.44
2023-01-25T11:43:14.328Z,103320.69
2023-01-25T11:46:09.322Z,103318.00
2023-01-25T11:49:57.577Z,103311.34
2023-01-25T11:53:38.041Z,103310.03
2023-01-25T11:56:41.720Z,103304.66
2023-01-25T11:59:32.391Z,103297.84
2023-01-25T12:02:38.812Z,103279.53
2023-01-25T12:05:37.727Z,103274.31
2023-01-25T12:08:47.117Z,103276.97
2023-01-25T12:11:52.552Z,103268.72
2023-01-25T12:14:44.862Z,103262.25
2023-01-25T12:18:05.435Z,103252.91
2023-01-25T12:20:58.518Z,103241.47
2023-01-25T12:24:17.015Z,103236.00
2023-01-25T12:27:07.734Z,103228.63
2023-01-25T12:29:45.385Z,103225.91
2023-01-25T12:32:33.836Z,103218.09
2023-01-25T12:35:51.230Z,103208.34
2023-01-25T12:38:34.366Z,103195.06
2023-01-25T12:41:09.201Z,103195.19
2023-01-25T12:43:49.874Z,103190.81
2023-01-25T12:46:32.167Z,103184.78
2023-01-25T12:49:15.990Z,103177.06
2023-01-25T12:51:49.979Z,103182.34
2023-01-25T12:54:39.269Z,103172.59
2023-01-25T12:57:42.707Z,103164.44
2023-01-25T13:00:29.488Z,103158.97
2023-01-25T13:03:41.510Z,103158.97
2023-01-25T13:06:42.518Z,103161.53
2023-01-25T13:09:28.969Z,103157.50
2023-01-25T13:12:04.766Z,103151.41
2023-01-25T13:15:38.932Z,103146.06
2023-01-25T13:18:29.331Z,103139.66
2023-01-25T13:21:11.612Z,103132.00
2023-01-25T13:23:50.245Z,103134.56
2023-01-25T13:26:22.269Z,103133.78
2023-01-25T13:28:56.605Z,103132.66
2023-01-25T13:31:58.991Z,103128.34
2023-01-25T13:34:40.331Z,103124.13
2023-01-25T13:37:33.562Z,103119.47
2023-01-25T13:40:33.756Z,103108.50
2023-01-25T13:46:18.010Z,103116.69
2023-01-25T13:49:02.131Z,103114.00
2023-01-25T13:51:38.993Z,103111.19
2023-01-25T13:54:42.868Z,103108.38
2023-01-25T13:57:21.913Z,103101.00
2023-01-25T14:00:16.791Z,103092.59
2023-01-25T14:02:55.443Z,103094.09
2023-01-25T14:05:30.457Z,103091.50
2023-01-25T14:08:03.271Z,103081.00
2023-01-25T14:10:35.465Z,103086.56
2023-01-25T14:13:37.730Z,103081.91
2023-01-25T14:16:10.778Z,103080.44
2023-01-25T14:18:44.872Z,103085.44
2023-01-25T14:21:20.612Z,103079.75
2023-01-25T14:23:52.813Z,103078.84
2023-01-25T14:26:27.053Z,103074.06
2023-01-25T14:29:01.667Z,103076.63
2023-01-25T14:31:40.692Z,103069.34
2023-01-25T14:34:36.756Z,103072.50
2023-01-25T14:37:20.910Z,103073.47
2023-01-25T14:39:53.153Z,103069.47
2023-01-25T14:42:25.288Z,103062.09
2023-01-25T14:45:00.377Z,103060.66
2023-01-25T14:47:33.310Z,103059.44
2023-01-25T14:50:36.235Z,103047.25
2023-01-25T14:53:23.981Z,103059.66
2023-01-25T14:55:55.923Z,103053.97
2023-01-25T14:58:31.656Z,103058.09
2023-01-25T15:01:04.183Z,103058.50
2023-01-25T15:03:44.865Z,103062.53
2023-01-25T15:06:16.938Z,103059.31
2023-01-25T15:08:49.111Z,103064.69
2023-01-25T15:15:37.384Z,103065.59
2023-01-25T15:18:54.386Z,103058.22
2023-01-25T15:21:32.601Z,103055.06
2023-01-25T15:24:10.932Z,103056.50
2023-01-25T15:26:43.076Z,103038.63
2023-01-25T15:29:21.054Z,103050.03
2023-01-25T15:31:55.473Z,103050.25
2023-01-25T15:35:36.061Z,103043.28
2023-01-25T15:38:13.068Z,103044.63
2023-01-25T15:40:48.908Z,103040.47
2023-01-25T15:43:21.051Z,103036.25
2023-01-25T15:45:56.747Z,103034.47
2023-01-25T15:48:37.037Z,103028.66
2023-01-25T15:51:09.288Z,103018.34
2023-01-25T15:53:44.646Z,103019.78
2023-01-25T15:56:19.761Z,103007.50
2023-01-25T15:58:54.885Z,103009.84
2023-01-25T16:01:30.888Z,103009.66
2023-01-25T16:04:03.061Z,103008.41
2023-01-25T16:06:42.100Z,103010.41
2023-01-25T16:09:24.037Z,103002.25
2023-01-25T16:11:59.415Z,102995.19
2023-01-25T16:15:10.763Z,102994.97
2023-01-25T16:17:43.471Z,102995.81
2023-01-25T16:20:21.088Z,102995.28
2023-01-25T16:23:11.346Z,102996.94
2023-01-25T16:25:48.763Z,102988.69
2023-01-25T16:29:14.899Z,102984.00
2023-01-25T16:31:47.421Z,102983.31
2023-01-25T16:34:21.128Z,102983.97
2023-01-25T16:36:53.441Z,102981.41
2023-01-25T16:40:06.864Z,102970.91
2023-01-25T16:42:38.970Z,102976.38
2023-01-25T16:45:11.241Z,102979.31
2023-01-25T16:47:43.946Z,102978.84
2023-01-25T16:50:21.516Z,102982.09
2023-01-25T16:52:55.867Z,102985.88
2023-01-25T16:55:27.997Z,102988.34
2023-01-25T16:58:00.143Z,102977.06
2023-01-25T17:00:32.187Z,102980.66
2023-01-25T17:03:35.765Z,102981.75
2023-01-25T17:06:09.083Z,102997.34
2023-01-25T17:08:41.069Z,102990.75
2023-01-25T17:11:13.534Z,102984.25
2023-01-25T17:13:53.453Z,102977.63
2023-01-25T17:16:29.676Z,102971.16
2023-01-25T17:19:12.479Z,102973.50
2023-01-25T17:21:45.367Z,102967.69
2023-01-25T17:24:21.295Z,102976.63
2023-01-25T17:26:57.719Z,102962.31
2023-01-25T17:30:04.349Z,102961.06
2023-01-25T17:32:36.314Z,102955.16
2023-01-25T17:35:09.077Z,102955.81
2023-01-25T17:38:01.604Z,102952.25
2023-01-25T17:40:54.443Z,102947.31
2023-01-25T17:43:28.097Z,102938.06
2023-01-25T17:46:00.739Z,102934.50
2023-01-25T17:48:35.705Z,102929.88
2023-01-25T17:51:08.084Z,102922.84
2023-01-25T17:53:40.928Z,102925.63
2023-01-25T17:56:13.992Z,102925.75
2023-01-25T17:58:46.469Z,102932.19
2023-01-25T18:01:22.580Z,102931.41
2023-01-25T18:03:55.767Z,102923.38
2023-01-25T18:06:36.729Z,102924.38
2023-01-25T18:09:09.166Z,102905.84
2023-01-25T18:11:41.264Z,102895.06
2023-01-25T18:14:17.532Z,102893.50
2023-01-25T18:16:49.539Z,102897.66
2023-01-25T18:19:21.620Z,102888.16
2023-01-25T18:22:39.391Z,102895.81
2023-01-25T18:25:34.406Z,102877.91
2023-01-25T18:28:06.974Z,102873.81
2023-01-25T18:30:52.962Z,102861.59
2023-01-25T18:33:38.492Z,102854.66
2023-01-25T18:36:36.345Z,102853.97
2023-01-25T18:39:10.223Z,102862.69
2023-01-25T18:41:44.658Z,102855.44
2023-01-25T18:44:16.825Z,102848.47
2023-01-25T18:46:49.203Z,102839.41
2023-01-25T18:49:21.307Z,102836.13
2023-01-25T18:52:10.517Z,102839.50
2023-01-25T18:54:44.382Z,102833.25
2023-01-25T18:57:17.766Z,102833.34
2023-01-25T18:59:50.049Z,102831.09
2023-01-25T19:02:23.645Z,102807.50
2023-01-25T19:04:55.995Z,102812.78
2023-01-25T19:07:28.223Z,102809.44
2023-01-25T19:10:00.301Z,102805.06
2023-01-25T19:12:32.364Z,102792.00
2023-01-25T19:15:04.890Z,102798.03
2023-01-25T19:17:36.846Z,102792.03
2023-01-25T19:20:10.117Z,102780.03
2023-01-25T19:22:42.174Z,102788.06
2023-01-25T19:25:14.323Z,102778.38
2023-01-25T19:27:46.503Z,102785.78
2023-01-25T19:30:18.672Z,102789.69
2023-01-25T19:33:53.544Z,102769.22
2023-01-25T19:36:56.183Z,102764.41
2023-01-25T19:39:28.359Z,102763.59
2023-01-25T19:42:09.673Z,102767.47
2023-01-25T19:44:41.705Z,102763.38
2023-01-25T19:47:13.667Z,102760.00
2023-01-25T19:49:45.922Z,102752.53
2023-01-25T19:52:18.247Z,102755.09
2023-01-25T19:54:50.353Z,102754.16
2023-01-25T19:57:22.455Z,102752.72
2023-01-25T19:59:57.056Z,102736.91
2023-01-25T20:02:29.349Z,102748.59
2023-01-25T20:05:01.325Z,102746.16
2023-01-25T20:07:33.478Z,102744.38
2023-01-25T20:10:06.392Z,102738.41
2023-01-25T20:12:38.441Z,102739.94
2023-01-25T20:18:57.167Z,102716.97
2023-01-25T20:21:31.426Z,102717.75
2023-01-25T20:24:06.087Z,102721.22
2023-01-25T20:26:42.904Z,102710.34
2023-01-25T20:29:15.424Z,102716.63
2023-01-25T20:31:47.757Z,102723.97
2023-01-25T20:34:22.734Z,102714.97
2023-01-25T20:36:54.745Z,102708.53
2023-01-25T20:39:26.981Z,102690.59
2023-01-25T20:42:06.675Z,102691.81
2023-01-25T20:44:38.828Z,102687.88
2023-01-25T20:51:24.593Z,102696.31
2023-01-25T20:57:26.184Z,102693.84
2023-01-25T21:00:45.286Z,102689.75
2023-01-25T21:03:17.388Z,102697.25
2023-01-25T21:06:08.745Z,102701.13
2023-01-25T21:08:40.889Z,102703.75
2023-01-25T21:11:13.616Z,102694.63
2023-01-25T21:13:45.702Z,102700.25
2023-01-25T21:16:23.260Z,102692.53
2023-01-25T21:18:58.684Z,102700.09
2023-01-25T21:21:32.895Z,102686.66
2023-01-25T21:24:06.140Z,102691.97
2023-01-25T21:26:38.601Z,102687.59
2023-01-25T21:29:10.581Z,102688.66
2023-01-25T21:35:08.468Z,102682.63
2023-01-25T21:37:40.724Z,102671.84
2023-01-25T21:40:14.088Z,102669.47
2023-01-25T21:42:47.641Z,102659.50
2023-01-25T21:45:38.340Z,102658.56
2023-01-25T21:49:26.150Z,102660.44
2023-01-25T21:52:02.099Z,102650.88
2023-01-25T21:54:37.164Z,102648.03
2023-01-25T21:57:11.672Z,102659.16
2023-01-25T21:59:45.000Z,102662.19
2023-01-25T22:02:17.115Z,102661.75
2023-01-25T22:05:05.032Z,102667.63
2023-01-25T22:07:37.035Z,102657.78
2023-01-25T22:10:10.139Z,102655.84
2023-01-25T22:12:42.340Z,102648.44
2023-01-25T22:15:14.510Z,102653.09
2023-01-25T22:17:46.568Z,102651.81
2023-01-25T22:20:18.645Z,102645.88
2023-01-25T22:22:50.636Z,102649.53
2023-01-25T22:26:17.454Z,102650.16
2023-01-25T22:28:53.173Z,102656.41
2023-01-25T22:31:28.312Z,102644.81
2023-01-25T22:34:00.389Z,102639.88
2023-01-25T22:36:32.694Z,102627.25
2023-01-25T22:39:05.119Z,102624.69
2023-01-25T22:42:35.279Z,102623.50
2023-01-25T22:45:07.930Z,102633.75
2023-01-25T22:47:41.988Z,102625.94
2023-01-25T22:50:14.101Z,102623.97
2023-01-25T22:52:46.267Z,102638.91
2023-01-25T22:55:37.814Z,102629.88
2023-01-25T22:58:10.397Z,102634.75
2023-01-25T23:00:42.622Z,102626.44
2023-01-25T23:03:14.685Z,102628.59
2023-01-25T23:05:46.795Z,102622.44
2023-01-25T23:08:18.960Z,102615.56
2023-01-25T23:11:11.534Z,102619.91
2023-01-25T23:14:07.851Z,102615.78
2023-01-25T23:16:39.889Z,102609.13
2023-01-25T23:19:13.254Z,102604.44
2023-01-25T23:21:45.467Z,102609.53
2023-01-25T23:24:17.636Z,102599.44
2023-01-25T23:26:49.659Z,102592.41
2023-01-25T23:29:21.656Z,102586.75
2023-01-25T23:31:53.708Z,102588.91
2023-01-25T23:34:39.641Z,102585.56
2023-01-25T23:37:16.876Z,102586.50
2023-01-25T23:39:50.343Z,102574.03
2023-01-25T23:42:22.461Z,102563.16
2023-01-25T23:45:11.344Z,102557.09
2023-01-25T23:47:43.411Z,102559.25
2023-01-25T23:50:15.920Z,102561.13
2023-01-25T23:52:47.897Z,102565.19
2023-01-25T23:55:20.259Z,102558.72
2023-01-25T23:57:53.240Z,102552.97
